METAR Data
IDs: Format: Raw Decoded Include TAF

Data at: 1518 UTC 27 Nov 2021

ETSN 271420Z 19003KT 9999 FEW020 SCT050 BKN100 03/01 Q0993 BLU